Startpagina
METAR-TAF:

METAR-TAF

Vliegvelden :

Kosrae, Micronesië

breedte: 05-21N, lengte: 162-57E, hoogte: 3 m

METAR: ontbreekt

Tijdstip: 03:34 (16:34 UTC)

Verwachting

Dit bericht is 39 uur en het 24 minuten geleden gemaakt, om 01:10 UTC
Verwachting geldig van 29 om 01 UTC tot 29 om 24 UTC
Wind 14 kt uit het oostnoordoosten
Zicht: 10 km
Verspreide wolken op 1800 ft
Verspreide wolken op 13000 ft
buien in de omgeving
Tijdelijke
van 29 om 01 UTC tot 29 om 02 UTC
Gebroken wolken op 1800 ft
lichte regenbuien

TAF: PTSA 290110Z 2901/2924 06014KT P6SM VCSH SCT018 SCT130 TEMPO 2901/2902 -SHRA BKN018

Waarnemingen en weersverwachtingen van meer dan 4000 vliegvelden (METAR en TAF).

De beschikbare stations zijn de gele en rode punten op de kaart.

Ga met uw muis naar het station om de naam te zien.

Klik dan om waarnemingen en weersverwachtingen te zien.

kaart wijzigen: klik op de groene knoppen met een zwart kruis om in te zoomen, op de groene knop met een streepje om uit te zoomen of op de groene pijlen voor aangrenzende kaarten.


METAR-TAF: